Time;durP1;ratioP1;P1;durP2;ratioP2;P2;SDS_P1;SDS_P2;PMS_P1;PMS_P2;Temp;Humidity;BMP_temperature;BMP_pressure;BME280_temperature;BME280_humidity;BME280_pressure;Samples;Min_cycle;Max_cycle;Signal;HPM_P1;HPM_P2
2023/10/27 00:00:40;;;;;;;5.83;2.03;;;13.30;99.90;;;;;;4960132;28;20587;-75
2023/10/27 00:03:05;;;;;;;6.97;2.20;;;13.30;99.90;;;;;;4974239;28;20621;-75
2023/10/27 00:05:31;;;;;;;8.40;3.20;;;13.40;99.90;;;;;;4966260;28;20567;-76
2023/10/27 00:07:58;;;;;;;5.50;1.97;;;13.40;99.90;;;;;;4968343;28;20187;-76
2023/10/27 00:10:24;;;;;;;5.53;1.90;;;13.40;99.90;;;;;;4967873;28;20580;-76
2023/10/27 00:12:51;;;;;;;3.47;1.47;;;13.40;99.90;;;;;;4966304;28;20638;-76
2023/10/27 00:15:17;;;;;;;7.13;3.40;;;13.40;99.90;;;;;;4967546;28;21002;-76
2023/10/27 00:17:44;;;;;;;7.70;2.50;;;13.40;99.90;;;;;;4959182;28;20587;-76
2023/10/27 00:20:10;;;;;;;6.27;2.40;;;13.40;99.90;;;;;;4975613;28;20270;-77
2023/10/27 00:22:36;;;;;;;5.47;2.40;;;13.40;99.90;;;;;;4974193;28;20591;-75
2023/10/27 00:25:02;;;;;;;5.47;2.20;;;13.30;99.90;;;;;;4977871;28;20638;-76
2023/10/27 00:27:28;;;;;;;7.47;3.10;;;13.30;99.90;;;;;;4974007;28;20230;-76
2023/10/27 00:29:54;;;;;;;6.17;2.30;;;13.30;99.90;;;;;;4975617;28;20681;-76
2023/10/27 00:32:19;;;;;;;5.70;1.80;;;13.20;99.90;;;;;;4973805;28;20694;-76
2023/10/27 00:34:45;;;;;;;3.43;1.63;;;13.20;99.90;;;;;;4975454;28;20234;-76
2023/10/27 00:37:11;;;;;;;5.00;1.50;;;13.10;99.90;;;;;;4974746;28;20184;-76
2023/10/27 00:39:39;;;;;;;8.57;2.00;;;13.10;99.90;;;;;;4974364;28;20850;-76
2023/10/27 00:42:05;;;;;;;3.93;1.70;;;13.10;99.90;;;;;;4966097;28;20300;-76
2023/10/27 00:44:31;;;;;;;6.33;1.77;;;13.10;99.90;;;;;;4956322;28;20675;-76
2023/10/27 00:46:57;;;;;;;7.25;2.63;;;13.10;99.90;;;;;;4954604;28;20592;-76
2023/10/27 00:49:24;;;;;;;6.23;1.53;;;13.00;99.90;;;;;;4938660;29;20314;-76
2023/10/27 00:51:50;;;;;;;5.60;2.85;;;13.00;99.90;;;;;;4954862;28;20191;-76
2023/10/27 00:54:18;;;;;;;6.93;2.03;;;13.00;99.90;;;;;;4956001;28;20243;-76
2023/10/27 00:56:44;;;;;;;4.70;1.40;;;13.00;99.90;;;;;;4955973;28;20239;-76
2023/10/27 00:59:11;;;;;;;6.57;2.28;;;13.00;99.90;;;;;;4954893;28;20602;-76
2023/10/27 01:01:37;;;;;;;5.77;1.60;;;13.00;99.90;;;;;;4956751;29;20176;-75
2023/10/27 01:04:03;;;;;;;4.97;1.43;;;13.00;99.90;;;;;;4954722;29;21087;-76
2023/10/27 01:06:30;;;;;;;5.22;2.00;;;13.00;99.90;;;;;;4954082;29;20204;-76
2023/10/27 01:08:56;;;;;;;6.10;1.40;;;13.00;99.90;;;;;;4966811;28;20266;-76
2023/10/27 01:11:33;;;;;;;6.20;1.80;;;13.00;99.90;;;;;;4968908;28;20583;-76
2023/10/27 01:14:00;;;;;;;9.45;1.92;;;13.00;99.90;;;;;;4965410;28;20608;-76
2023/10/27 01:16:26;;;;;;;6.47;1.50;;;13.00;99.90;;;;;;4965381;28;20638;-76
2023/10/27 01:18:53;;;;;;;8.90;2.20;;;13.10;99.90;;;;;;4981919;23;20763;-76
2023/10/27 01:21:18;;;;;;;3.83;1.40;;;13.10;99.90;;;;;;4965722;28;20215;-75
2023/10/27 01:23:44;;;;;;;7.80;2.20;;;13.10;99.90;;;;;;4980211;28;20206;-76
2023/10/27 01:26:10;;;;;;;5.40;1.97;;;13.10;99.90;;;;;;5005256;28;20207;-76
2023/10/27 01:28:36;;;;;;;9.30;1.70;;;13.10;99.90;;;;;;4955990;28;20195;-76
2023/10/27 01:31:01;;;;;;;4.03;1.87;;;13.10;99.90;;;;;;4957740;28;20180;-76
2023/10/27 01:33:27;;;;;;;4.50;1.63;;;13.10;99.90;;;;;;4973037;28;20172;-75
2023/10/27 01:35:54;;;;;;;8.23;2.13;;;13.10;99.90;;;;;;4972668;28;20842;-75
2023/10/27 01:38:20;;;;;;;4.33;2.07;;;13.10;99.90;;;;;;4964783;28;20195;-75
2023/10/27 01:40:46;;;;;;;4.90;2.00;;;13.10;99.90;;;;;;4973641;28;20583;-76
2023/10/27 01:43:12;;;;;;;5.70;1.60;;;13.10;99.90;;;;;;4974795;28;20593;-75
2023/10/27 01:45:38;;;;;;;10.33;1.80;;;13.10;99.90;;;;;;4960982;28;20282;-76
2023/10/27 01:48:04;;;;;;;6.20;2.10;;;13.10;99.90;;;;;;4967530;28;20732;-76
2023/10/27 01:50:30;;;;;;;6.87;2.87;;;13.10;99.90;;;;;;4999652;28;20175;-76
2023/10/27 01:52:56;;;;;;;5.23;1.77;;;13.10;99.90;;;;;;4960679;28;20579;-76
2023/10/27 01:55:24;;;;;;;7.87;2.27;;;13.10;99.90;;;;;;4957911;28;20672;-76
2023/10/27 01:57:49;;;;;;;8.43;1.98;;;13.10;99.90;;;;;;4974639;28;20190;-77
2023/10/27 02:00:15;;;;;;;4.23;1.70;;;13.10;99.90;;;;;;4974157;28;20180;-76
2023/10/27 02:02:41;;;;;;;9.20;2.27;;;13.10;99.90;;;;;;4962175;28;20172;-76
2023/10/27 02:05:08;;;;;;;5.30;1.30;;;13.10;99.90;;;;;;4956027;28;20639;-75
2023/10/27 02:07:34;;;;;;;5.33;1.70;;;13.10;99.90;;;;;;4971949;28;20615;-75
2023/10/27 02:10:00;;;;;;;9.67;1.60;;;13.10;99.90;;;;;;4978445;28;21202;-75
2023/10/27 02:12:27;;;;;;;6.30;1.40;;;13.20;99.90;;;;;;4972185;28;20603;-76
2023/10/27 02:14:52;;;;;;;8.30;2.30;;;13.20;99.90;;;;;;4956051;28;20591;-76
2023/10/27 02:17:18;;;;;;;6.90;1.23;;;13.20;99.90;;;;;;4955826;28;20583;-76
2023/10/27 02:19:44;;;;;;;8.53;2.20;;;13.20;99.90;;;;;;4972027;28;20215;-76
2023/10/27 02:22:10;;;;;;;6.07;1.80;;;13.20;99.90;;;;;;4956009;28;20594;-76
2023/10/27 02:24:40;;;;;;;10.27;2.13;;;13.20;99.90;;;;;;4955602;28;20698;-76
2023/10/27 02:27:05;;;;;;;2.93;1.90;;;13.20;99.90;;;;;;4955758;28;20171;-76
2023/10/27 02:29:31;;;;;;;7.43;1.90;;;13.10;99.90;;;;;;4955953;28;21218;-76
2023/10/27 02:31:57;;;;;;;6.07;1.57;;;13.10;99.90;;;;;;4963881;28;20184;-76
2023/10/27 02:34:23;;;;;;;3.90;1.60;;;13.10;99.90;;;;;;4966176;28;20190;-76
2023/10/27 02:36:49;;;;;;;9.87;1.83;;;13.10;99.90;;;;;;4980128;28;20582;-77
2023/10/27 02:39:15;;;;;;;7.10;3.03;;;13.10;99.90;;;;;;4982078;28;20610;-76
2023/10/27 02:41:41;;;;;;;6.63;2.03;;;13.10;99.90;;;;;;4959367;28;20175;-76
2023/10/27 02:44:06;;;;;;;4.60;2.20;;;13.10;99.90;;;;;;4958508;28;20180;-76
2023/10/27 02:46:33;;;;;;;6.30;1.83;;;13.10;99.90;;;;;;4959969;28;20569;-76
2023/10/27 02:49:00;;;;;;;8.40;2.00;;;13.10;99.90;;;;;;4975838;28;20285;-76
2023/10/27 02:51:26;;;;;;;5.20;1.63;;;13.10;99.90;;;;;;4971432;28;20599;-76
2023/10/27 02:53:52;;;;;;;10.03;2.63;;;13.10;99.90;;;;;;4972203;28;20587;-76
2023/10/27 02:56:18;;;;;;;5.80;2.10;;;13.10;99.90;;;;;;4971268;28;20270;-75
2023/10/27 02:58:44;;;;;;;8.40;1.80;;;13.10;99.90;;;;;;4968567;28;20713;-76
2023/10/27 03:01:10;;;;;;;5.20;2.10;;;13.10;99.90;;;;;;4975374;28;20180;-76
2023/10/27 03:03:36;;;;;;;5.70;1.77;;;13.10;99.90;;;;;;4955316;28;20179;-75
2023/10/27 03:06:03;;;;;;;4.97;2.20;;;13.10;99.90;;;;;;4971161;28;20638;-76
2023/10/27 03:08:29;;;;;;;4.53;1.83;;;13.10;99.90;;;;;;4971354;28;20665;-76
2023/10/27 03:10:55;;;;;;;6.73;2.00;;;13.10;99.90;;;;;;4969396;28;20598;-76
2023/10/27 03:13:21;;;;;;;6.60;2.33;;;13.10;99.90;;;;;;4956800;28;20619;-75
2023/10/27 03:15:47;;;;;;;7.50;2.80;;;13.10;99.90;;;;;;4971176;28;20266;-75
2023/10/27 03:18:13;;;;;;;5.10;2.27;;;13.10;99.90;;;;;;4953945;28;20661;-75
2023/10/27 03:20:38;;;;;;;7.73;1.90;;;13.10;99.90;;;;;;4970806;28;20175;-75
2023/10/27 03:23:05;;;;;;;5.73;2.07;;;13.10;99.90;;;;;;4955025;28;20183;-75
2023/10/27 03:25:30;;;;;;;8.20;2.17;;;13.10;99.90;;;;;;4970760;28;20641;-76
2023/10/27 03:27:56;;;;;;;12.13;3.30;;;13.10;99.90;;;;;;4954721;28;20600;-76
2023/10/27 03:30:22;;;;;;;5.70;2.20;;;13.00;99.90;;;;;;4970681;28;20186;-76
2023/10/27 03:32:48;;;;;;;5.47;1.70;;;13.00;99.90;;;;;;4971029;28;20634;-75
2023/10/27 03:35:15;;;;;;;6.43;1.73;;;13.00;99.90;;;;;;4970696;28;20187;-76
2023/10/27 03:37:40;;;;;;;3.40;1.80;;;13.00;99.90;;;;;;4954344;28;20645;-76
2023/10/27 03:40:07;;;;;;;5.20;1.83;;;13.00;99.90;;;;;;4970896;28;20618;-76
2023/10/27 03:42:33;;;;;;;4.40;1.77;;;13.00;99.90;;;;;;4970840;28;20179;-76
2023/10/27 03:45:00;;;;;;;5.40;1.67;;;12.90;99.90;;;;;;4985239;28;20685;-76
2023/10/27 03:47:26;;;;;;;10.63;2.13;;;12.90;99.90;;;;;;4972587;28;20590;-76
2023/10/27 03:49:51;;;;;;;6.73;2.03;;;12.90;99.90;;;;;;4954780;28;20270;-76
2023/10/27 03:52:17;;;;;;;6.33;2.67;;;12.90;99.90;;;;;;4971397;28;20206;-76
2023/10/27 03:54:43;;;;;;;4.60;2.07;;;12.90;99.90;;;;;;4970509;28;20183;-76
2023/10/27 03:57:10;;;;;;;5.93;2.57;;;12.90;99.90;;;;;;4979231;28;20591;-76
2023/10/27 03:59:35;;;;;;;3.63;1.90;;;12.80;99.90;;;;;;4971859;28;20619;-76
2023/10/27 04:02:01;;;;;;;3.27;1.83;;;12.80;99.90;;;;;;4970239;28;20641;-76
2023/10/27 04:04:27;;;;;;;7.50;1.90;;;12.80;99.90;;;;;;4970312;28;20225;-77
2023/10/27 04:06:54;;;;;;;7.93;3.13;;;12.80;99.90;;;;;;4975960;28;20205;-77
2023/10/27 04:09:21;;;;;;;3.50;1.77;;;12.80;99.90;;;;;;4991793;28;20195;-77
2023/10/27 04:11:47;;;;;;;5.20;1.80;;;12.80;99.90;;;;;;4977146;28;20610;-75
2023/10/27 04:14:13;;;;;;;4.67;1.67;;;12.80;99.90;;;;;;4971694;28;21112;-76
2023/10/27 04:16:38;;;;;;;5.37;2.60;;;12.80;99.90;;;;;;4970084;28;20175;-75
2023/10/27 04:19:04;;;;;;;6.87;2.33;;;12.80;99.90;;;;;;4976838;28;20419;-76
2023/10/27 04:21:30;;;;;;;6.67;2.67;;;12.70;99.90;;;;;;4971761;28;20594;-76
2023/10/27 04:23:56;;;;;;;4.50;1.93;;;12.70;99.90;;;;;;4970531;28;20219;-76
2023/10/27 04:26:22;;;;;;;5.73;1.70;;;12.70;99.90;;;;;;4971235;28;20203;-76
2023/10/27 04:28:50;;;;;;;8.03;3.80;;;12.70;99.90;;;;;;4970185;28;20611;-77
2023/10/27 04:31:16;;;;;;;5.37;1.70;;;12.70;99.90;;;;;;4978653;28;20180;-77
2023/10/27 04:33:43;;;;;;;5.17;2.40;;;12.70;99.90;;;;;;4977544;28;20583;-77
2023/10/27 04:36:09;;;;;;;3.60;2.03;;;12.70;99.90;;;;;;4971260;28;20630;-78
2023/10/27 04:38:34;;;;;;;5.87;2.00;;;12.70;99.90;;;;;;4972871;28;20618;-78
2023/10/27 04:41:00;;;;;;;6.13;1.93;;;12.80;99.90;;;;;;4986594;28;20582;-77
2023/10/27 04:43:26;;;;;;;8.23;2.20;;;12.70;99.90;;;;;;4989544;28;20202;-78
2023/10/27 04:45:52;;;;;;;8.07;2.30;;;12.70;99.90;;;;;;4990462;28;21059;-75
2023/10/27 04:48:18;;;;;;;8.43;2.20;;;12.70;99.90;;;;;;5005873;28;20222;-76
2023/10/27 04:50:43;;;;;;;6.97;2.33;;;12.70;99.90;;;;;;5005773;28;20179;-76
2023/10/27 04:53:09;;;;;;;5.43;2.30;;;12.70;99.90;;;;;;4989905;28;20186;-76
2023/10/27 04:56:04;;;;;;;6.77;1.73;;;12.70;99.90;;;;;;4982246;28;20187;-75
2023/10/27 04:58:48;;;;;;;5.77;2.40;;;12.70;99.90;;;;;;4972707;28;20609;-75
2023/10/27 05:01:14;;;;;;;6.80;3.63;;;12.70;99.90;;;;;;4969768;28;20599;-75
2023/10/27 05:03:39;;;;;;;8.60;2.47;;;12.70;99.90;;;;;;4970095;28;20598;-75
2023/10/27 05:06:11;;;;;;;4.70;2.17;;;12.70;99.90;;;;;;4981298;28;20730;-74
2023/10/27 05:08:37;;;;;;;6.43;1.90;;;12.70;99.90;;;;;;4974508;28;20293;-75
2023/10/27 05:11:06;;;;;;;6.53;2.20;;;12.60;99.90;;;;;;4965309;28;20203;-75
2023/10/27 05:13:32;;;;;;;6.83;2.30;;;12.60;99.90;;;;;;4973265;28;20172;-74
2023/10/27 05:15:58;;;;;;;7.23;3.10;;;12.60;99.90;;;;;;4980353;28;20677;-75
2023/10/27 05:18:24;;;;;;;4.83;3.03;;;12.60;99.90;;;;;;5001244;28;20641;-76
2023/10/27 05:20:49;;;;;;;4.93;2.37;;;12.60;99.90;;;;;;4957101;28;20215;-76
2023/10/27 05:23:15;;;;;;;7.13;3.10;;;12.50;99.90;;;;;;4973319;28;20183;-75
2023/10/27 05:25:41;;;;;;;7.30;2.77;;;12.50;99.90;;;;;;4973201;28;20214;-75
2023/10/27 05:28:08;;;;;;;6.37;2.10;;;12.50;99.90;;;;;;4957043;28;20199;-75
2023/10/27 05:30:34;;;;;;;4.13;2.88;;;12.50;99.90;;;;;;4956851;28;20179;-76
2023/10/27 05:33:00;;;;;;;11.23;3.05;;;12.50;99.90;;;;;;4978669;28;20175;-75
2023/10/27 05:35:26;;;;;;;8.93;3.90;;;12.50;99.90;;;;;;4973059;28;20610;-76
2023/10/27 05:37:52;;;;;;;6.07;2.50;;;12.50;99.90;;;;;;4972654;28;20622;-76
2023/10/27 05:40:18;;;;;;;10.47;3.40;;;12.50;99.90;;;;;;4988966;28;20590;-75
2023/10/27 05:42:44;;;;;;;3.63;2.20;;;12.40;99.90;;;;;;4974293;28;20183;-76
2023/10/27 05:45:13;;;;;;;5.07;3.13;;;12.40;99.90;;;;;;4974143;28;20203;-76
2023/10/27 05:47:39;;;;;;;5.33;2.90;;;12.40;99.90;;;;;;4989861;28;20180;-76
2023/10/27 05:50:08;;;;;;;11.48;4.10;;;12.40;99.90;;;;;;4974116;28;20977;-74
2023/10/27 05:52:34;;;;;;;8.48;3.00;;;12.30;99.90;;;;;;4982161;28;20187;-74
2023/10/27 05:55:01;;;;;;;7.50;2.77;;;12.30;99.90;;;;;;4978314;28;20667;-75
2023/10/27 05:57:26;;;;;;;5.43;2.73;;;12.30;99.90;;;;;;4959458;28;20586;-75
2023/10/27 05:59:52;;;;;;;5.80;3.37;;;12.30;99.90;;;;;;4957459;28;21416;-74
2023/10/27 06:02:18;;;;;;;6.90;3.07;;;12.30;99.90;;;;;;4959602;28;21215;-74
2023/10/27 06:04:44;;;;;;;6.53;2.80;;;12.30;99.90;;;;;;4973451;28;20631;-76
2023/10/27 06:07:15;;;;;;;9.70;3.80;;;12.30;99.90;;;;;;4987294;28;20598;-76
2023/10/27 06:09:42;;;;;;;8.60;3.00;;;12.30;99.90;;;;;;5012384;28;20195;-76
2023/10/27 06:12:09;;;;;;;10.83;2.70;;;12.30;99.90;;;;;;4988925;28;20591;-76
2023/10/27 06:14:35;;;;;;;5.73;3.47;;;12.30;99.90;;;;;;4971954;28;20597;-76
2023/10/27 06:17:01;;;;;;;7.68;3.45;;;12.30;99.90;;;;;;4983824;28;20637;-76
2023/10/27 06:19:27;;;;;;;9.13;3.63;;;12.30;99.90;;;;;;4983588;28;20207;-76
2023/10/27 06:22:00;;;;;;;12.50;3.33;;;12.30;99.90;;;;;;4994066;28;20946;-76
2023/10/27 06:24:26;;;;;;;8.00;3.67;;;12.30;99.90;;;;;;4973139;28;20579;-76
2023/10/27 06:26:52;;;;;;;9.67;3.70;;;12.30;99.90;;;;;;4990859;28;21136;-76
2023/10/27 06:29:18;;;;;;;7.80;3.57;;;12.30;99.90;;;;;;4969191;28;20195;-78
2023/10/27 06:31:43;;;;;;;7.37;3.60;;;12.40;99.90;;;;;;4981799;28;20185;-78
2023/10/27 06:34:09;;;;;;;5.83;2.83;;;12.40;99.90;;;;;;4976057;28;20204;-77
2023/10/27 06:36:35;;;;;;;5.20;3.70;;;12.40;99.90;;;;;;4971238;28;20210;-77
2023/10/27 06:39:01;;;;;;;5.70;2.80;;;12.40;99.90;;;;;;4981224;28;20676;-77
2023/10/27 06:41:27;;;;;;;8.03;3.20;;;12.40;99.90;;;;;;4978260;28;20580;-77
2023/10/27 06:43:52;;;;;;;7.37;3.80;;;12.50;99.90;;;;;;4983808;28;20842;-77
2023/10/27 06:46:18;;;;;;;4.10;3.10;;;12.50;99.90;;;;;;4985620;28;20645;-76
2023/10/27 06:48:44;;;;;;;8.77;3.57;;;12.50;99.90;;;;;;4979016;28;20202;-76
2023/10/27 06:51:10;;;;;;;9.50;3.67;;;12.50;99.90;;;;;;4996800;28;20183;-76
2023/10/27 06:53:35;;;;;;;4.97;3.20;;;12.50;99.90;;;;;;4974768;28;20187;-77
2023/10/27 06:56:01;;;;;;;6.23;4.03;;;12.50;99.90;;;;;;4977380;28;20190;-76
2023/10/27 06:58:27;;;;;;;8.80;4.20;;;12.50;99.90;;;;;;4972135;28;20203;-76
2023/10/27 07:00:53;;;;;;;6.63;3.83;;;12.50;99.90;;;;;;4985713;28;20590;-77
2023/10/27 07:03:18;;;;;;;6.33;3.10;;;12.50;99.90;;;;;;4976978;28;20182;-77
2023/10/27 07:05:44;;;;;;;8.97;3.43;;;12.50;99.90;;;;;;4979978;28;20223;-76
2023/10/27 07:08:10;;;;;;;5.80;3.73;;;12.60;99.90;;;;;;4976039;28;20196;-77
2023/10/27 07:10:36;;;;;;;4.30;3.00;;;12.60;99.90;;;;;;4970887;28;20183;-76
2023/10/27 07:13:02;;;;;;;6.03;3.97;;;12.60;99.90;;;;;;4977567;28;20262;-76
2023/10/27 07:15:27;;;;;;;7.07;3.30;;;12.50;99.90;;;;;;4974895;28;20694;-77
2023/10/27 07:17:54;;;;;;;4.90;2.60;;;12.50;99.90;;;;;;4972049;28;20187;-77
2023/10/27 07:20:20;;;;;;;8.83;3.23;;;12.50;99.90;;;;;;4971951;28;20678;-77
2023/10/27 07:22:46;;;;;;;4.70;2.53;;;12.60;99.90;;;;;;4988441;28;20670;-77
2023/10/27 07:25:11;;;;;;;8.57;3.80;;;12.60;99.90;;;;;;4985957;28;20701;-76
2023/10/27 07:27:37;;;;;;;6.33;2.57;;;12.50;99.90;;;;;;4961810;28;20183;-77
2023/10/27 07:30:04;;;;;;;5.47;3.23;;;12.50;99.90;;;;;;4970886;28;20200;-76
2023/10/27 07:32:29;;;;;;;8.30;3.50;;;12.60;99.90;;;;;;4972024;28;20176;-77
2023/10/27 07:34:55;;;;;;;5.80;2.70;;;12.60;99.90;;;;;;4975190;28;20601;-77
2023/10/27 07:37:23;;;;;;;5.00;2.20;;;12.50;99.90;;;;;;4975602;28;20188;-76
2023/10/27 07:39:49;;;;;;;5.23;2.40;;;12.60;99.90;;;;;;4978285;28;20650;-76
2023/10/27 07:42:15;;;;;;;5.93;2.23;;;12.60;99.90;;;;;;4977261;28;20614;-74
2023/10/27 07:44:40;;;;;;;4.47;2.50;;;12.70;99.90;;;;;;4979662;28;20213;-76
2023/10/27 07:47:06;;;;;;;7.27;1.83;;;12.70;99.90;;;;;;4979765;28;20587;-76
2023/10/27 07:49:33;;;;;;;3.50;2.33;;;12.80;99.90;;;;;;4971548;28;20670;-76
2023/10/27 07:51:59;;;;;;;6.13;2.57;;;12.80;99.90;;;;;;4986493;28;20615;-76
2023/10/27 07:54:25;;;;;;;5.87;2.47;;;12.80;99.90;;;;;;4972058;28;20767;-75
2023/10/27 07:56:51;;;;;;;3.20;1.90;;;12.90;99.90;;;;;;4954404;28;20172;-76
2023/10/27 07:59:16;;;;;;;3.00;1.90;;;12.90;99.90;;;;;;4970777;28;20714;-76
2023/10/27 08:01:42;;;;;;;3.57;1.93;;;12.90;99.90;;;;;;4981700;28;20189;-75
2023/10/27 08:04:08;;;;;;;2.40;1.70;;;13.00;99.90;;;;;;4970467;28;20190;-75
2023/10/27 08:06:33;;;;;;;3.30;1.53;;;13.00;99.90;;;;;;4971537;28;20214;-76
2023/10/27 08:08:59;;;;;;;3.70;1.40;;;13.10;99.90;;;;;;4971848;28;20559;-73
2023/10/27 08:11:25;;;;;;;4.67;1.80;;;13.20;99.90;;;;;;4981105;28;20179;-74
2023/10/27 08:13:51;;;;;;;2.53;1.20;;;13.20;99.90;;;;;;4979524;28;20214;-75
2023/10/27 08:16:16;;;;;;;2.37;1.40;;;13.30;99.90;;;;;;4985425;28;20186;-76
2023/10/27 08:18:42;;;;;;;3.40;1.70;;;13.30;99.90;;;;;;4983237;28;20218;-77
2023/10/27 08:21:08;;;;;;;2.00;1.20;;;13.30;99.90;;;;;;4991616;28;20201;-77
2023/10/27 08:23:34;;;;;;;2.63;1.40;;;13.30;99.90;;;;;;4977437;28;20586;-77
2023/10/27 08:26:00;;;;;;;2.70;1.83;;;13.40;99.90;;;;;;4999809;28;20657;-77
2023/10/27 08:28:27;;;;;;;2.73;1.43;;;13.40;99.90;;;;;;4974364;28;20341;-78
2023/10/27 08:30:53;;;;;;;5.00;1.83;;;13.50;99.90;;;;;;4977528;28;20590;-74
2023/10/27 08:33:19;;;;;;;3.37;1.60;;;13.50;99.90;;;;;;4989310;28;20566;-74
2023/10/27 08:35:44;;;;;;;3.13;2.07;;;13.50;99.90;;;;;;4989712;28;20560;-73
2023/10/27 08:38:10;;;;;;;3.23;1.70;;;13.60;99.90;;;;;;4992072;28;20238;-73
2023/10/27 08:40:36;;;;;;;2.17;1.30;;;13.60;99.90;;;;;;4993231;28;20175;-74
2023/10/27 08:43:03;;;;;;;2.80;1.70;;;13.70;99.90;;;;;;4984095;28;21186;-74
2023/10/27 08:45:29;;;;;;;7.80;1.90;;;13.70;99.90;;;;;;4994577;28;20638;-74
2023/10/27 08:47:55;;;;;;;2.20;1.20;;;13.70;99.90;;;;;;4993065;28;20586;-73
2023/10/27 08:50:22;;;;;;;2.80;1.70;;;13.70;99.90;;;;;;4994542;28;20670;-74
2023/10/27 08:52:51;;;;;;;4.40;1.57;;;13.70;99.90;;;;;;4992458;28;21007;-77
2023/10/27 08:55:16;;;;;;;4.50;1.70;;;13.80;99.90;;;;;;4988967;28;20578;-78
2023/10/27 08:57:42;;;;;;;3.23;1.63;;;13.80;99.90;;;;;;4993356;28;20663;-77
2023/10/27 09:00:08;;;;;;;4.03;1.43;;;13.80;99.90;;;;;;4994111;28;20198;-77
2023/10/27 09:02:44;;;;;;;5.53;1.93;;;13.90;99.90;;;;;;4993464;28;20629;-78
2023/10/27 09:05:11;;;;;;;6.30;2.33;;;13.90;99.90;;;;;;4993279;28;20725;-78
2023/10/27 09:07:37;;;;;;;3.57;2.23;;;13.90;99.90;;;;;;4993110;28;20574;-77
2023/10/27 09:10:06;;;;;;;4.60;2.70;;;13.90;99.90;;;;;;4977031;28;20606;-77
2023/10/27 09:12:36;;;;;;;6.50;2.80;;;14.00;99.90;;;;;;4980301;28;20593;-77
2023/10/27 09:15:07;;;;;;;6.70;2.57;;;14.00;99.90;;;;;;4996626;28;20677;-77
2023/10/27 09:17:51;;;;;;;4.13;1.57;;;14.00;99.90;;;;;;4996076;28;20649;-77
2023/10/27 09:20:20;;;;;;;3.50;2.40;;;14.00;99.90;;;;;;4995721;28;20597;-77
2023/10/27 09:23:05;;;;;;;2.93;1.33;;;14.00;99.90;;;;;;4984827;28;20603;-77
2023/10/27 09:25:33;;;;;;;2.90;1.20;;;14.00;99.90;;;;;;4991740;28;21195;-78
2023/10/27 09:28:05;;;;;;;2.37;1.20;;;14.00;99.90;;;;;;5009755;28;20660;-78
2023/10/27 09:30:32;;;;;;;2.50;1.60;;;14.00;99.90;;;;;;4995161;28;20637;-77
2023/10/27 09:33:15;;;;;;;2.00;1.70;;;14.00;99.90;;;;;;5002383;28;20606;-77
2023/10/27 09:35:42;;;;;;;2.83;1.33;;;14.00;99.90;;;;;;4992540;28;20694;-78
2023/10/27 09:38:12;;;;;;;6.13;1.77;;;14.00;99.90;;;;;;4974788;28;20987;-79
2023/10/27 09:40:39;;;;;;;3.47;1.97;;;14.00;99.90;;;;;;4960526;28;21210;-78
2023/10/27 09:43:14;;;;;;;2.87;1.97;;;14.10;99.90;;;;;;4995948;28;20588;-78
2023/10/27 09:46:00;;;;;;;2.03;1.10;;;14.10;99.90;;;;;;5002521;28;20636;-78
2023/10/27 09:48:29;;;;;;;3.13;1.23;;;14.10;99.90;;;;;;4998137;28;20643;-79
2023/10/27 09:51:10;;;;;;;2.50;1.23;;;14.20;99.90;;;;;;4970208;28;20586;-79
2023/10/27 09:53:37;;;;;;;1.70;0.93;;;14.30;99.90;;;;;;5001877;28;20589;-78
2023/10/27 09:56:06;;;;;;;2.97;1.00;;;14.40;99.90;;;;;;5000253;28;20592;-77
2023/10/27 09:58:34;;;;;;;4.67;1.20;;;14.40;99.90;;;;;;5007516;28;20621;-77
2023/10/27 10:01:02;;;;;;;1.80;0.90;;;14.50;99.90;;;;;;4983526;28;20590;-76
2023/10/27 10:03:28;;;;;;;4.40;1.00;;;14.60;99.90;;;;;;4982368;28;20685;-76
2023/10/27 10:06:14;;;;;;;4.60;1.07;;;14.70;99.90;;;;;;5009406;28;20634;-78
2023/10/27 10:08:40;;;;;;;4.13;1.10;;;14.70;99.90;;;;;;4994804;28;20602;-78
2023/10/27 10:11:18;;;;;;;2.13;1.10;;;14.90;99.90;;;;;;5011963;28;20586;-77
2023/10/27 10:13:48;;;;;;;2.93;1.30;;;14.90;99.90;;;;;;5014144;28;20593;-78
2023/10/27 10:16:14;;;;;;;3.93;1.80;;;15.10;99.90;;;;;;5019269;28;20591;-78
2023/10/27 10:18:55;;;;;;;2.10;0.90;;;15.20;99.90;;;;;;4993321;28;20629;-77
2023/10/27 10:21:37;;;;;;;4.23;0.90;;;15.20;99.90;;;;;;5008550;28;20601;-77
2023/10/27 10:24:03;;;;;;;2.30;1.40;;;15.40;99.90;;;;;;4997875;28;20591;-78
2023/10/27 10:27:04;;;;;;;2.70;1.20;;;15.50;99.90;;;;;;4989003;28;20636;-78
2023/10/27 10:29:32;;;;;;;3.23;1.23;;;15.60;99.90;;;;;;4976202;28;20680;-78
2023/10/27 10:32:38;;;;;;;1.97;1.27;;;15.80;99.90;;;;;;4991854;28;20594;-77
2023/10/27 10:35:23;;;;;;;4.37;1.30;;;15.80;99.90;;;;;;4966859;28;20594;-77
2023/10/27 10:37:51;;;;;;;3.03;1.83;;;16.00;99.90;;;;;;4990413;28;20586;-77
2023/10/27 10:40:26;;;;;;;2.40;1.17;;;16.10;99.90;;;;;;4983990;28;20598;-77
2023/10/27 10:43:40;;;;;;;3.50;1.17;;;16.20;99.90;;;;;;4988745;28;20620;-77
2023/10/27 10:46:10;;;;;;;3.43;1.60;;;16.20;99.90;;;;;;5004349;28;20648;-78
2023/10/27 10:48:41;;;;;;;2.83;1.50;;;16.30;99.90;;;;;;5015845;28;20724;-77
2023/10/27 10:51:15;;;;;;;2.30;1.53;;;16.20;99.90;;;;;;4991699;28;20952;-77
2023/10/27 10:53:43;;;;;;;4.67;1.37;;;16.20;99.90;;;;;;4999189;28;20586;-78
2023/10/27 10:56:09;;;;;;;4.83;1.80;;;16.20;99.90;;;;;;4992062;28;20578;-78
2023/10/27 10:58:37;;;;;;;3.60;1.47;;;16.20;99.90;;;;;;4984146;28;20631;-79
2023/10/27 11:01:04;;;;;;;3.63;1.40;;;16.20;99.90;;;;;;4976527;23;20684;-76
2023/10/27 11:03:33;;;;;;;2.90;1.93;;;16.20;99.90;;;;;;4958702;28;21176;-76
2023/10/27 11:06:02;;;;;;;3.80;1.60;;;16.30;99.90;;;;;;4969465;28;20679;-77
2023/10/27 11:08:34;;;;;;;6.50;1.70;;;16.40;99.90;;;;;;4968376;28;20587;-77
2023/10/27 11:11:09;;;;;;;5.70;1.87;;;16.40;99.90;;;;;;4960903;28;20982;-77
2023/10/27 11:13:45;;;;;;;3.03;2.17;;;16.50;99.90;;;;;;4972467;28;20583;-77
2023/10/27 11:16:22;;;;;;;4.00;2.53;;;16.50;99.90;;;;;;4971128;28;21393;-77
2023/10/27 11:18:53;;;;;;;12.10;6.60;;;16.50;99.90;;;;;;4972523;28;20590;-77
2023/10/27 11:21:27;;;;;;;10.63;6.80;;;16.60;99.90;;;;;;4971068;28;20622;-77
2023/10/27 11:23:54;;;;;;;12.70;7.17;;;16.60;99.90;;;;;;4972013;28;20582;-77
2023/10/27 11:26:23;;;;;;;8.40;5.40;;;16.60;99.90;;;;;;4972137;28;20639;-77
2023/10/27 11:28:49;;;;;;;8.80;3.60;;;16.60;99.90;;;;;;4970948;28;20588;-78
2023/10/27 11:31:27;;;;;;;7.63;3.30;;;16.60;99.90;;;;;;4972368;28;20618;-77
2023/10/27 11:34:04;;;;;;;3.80;2.40;;;16.60;99.90;;;;;;4972372;28;20590;-77
2023/10/27 11:36:40;;;;;;;6.37;2.40;;;16.60;99.90;;;;;;4972161;28;20582;-77
2023/10/27 11:39:19;;;;;;;5.10;1.73;;;16.70;99.90;;;;;;4971572;28;20595;-77
2023/10/27 11:41:58;;;;;;;3.77;1.50;;;16.80;99.90;;;;;;4972262;28;20661;-77
2023/10/27 11:44:24;;;;;;;2.57;1.13;;;16.80;99.90;;;;;;4972282;28;20590;-77
2023/10/27 11:46:54;;;;;;;6.13;1.60;;;16.80;99.90;;;;;;4972078;28;21231;-76
2023/10/27 11:49:21;;;;;;;4.47;1.90;;;16.80;99.90;;;;;;4976421;28;20582;-77
2023/10/27 11:51:49;;;;;;;4.37;1.40;;;16.80;99.90;;;;;;4956801;28;20611;-77
2023/10/27 11:54:17;;;;;;;3.40;1.10;;;16.70;99.90;;;;;;4970473;28;20579;-77
2023/10/27 11:56:44;;;;;;;4.13;1.30;;;16.60;99.90;;;;;;4986717;28;20603;-77
2023/10/27 11:59:10;;;;;;;3.30;1.17;;;16.50;99.90;;;;;;4971993;28;20586;-77
2023/10/27 12:01:39;;;;;;;2.10;1.10;;;16.40;99.90;;;;;;4979367;28;20630;-77
2023/10/27 12:04:07;;;;;;;5.97;2.57;;;16.40;99.90;;;;;;4962896;28;21159;-77
2023/10/27 12:06:34;;;;;;;4.23;1.67;;;16.30;99.90;;;;;;4970452;28;20677;-78
2023/10/27 12:09:00;;;;;;;7.43;2.33;;;16.30;99.90;;;;;;4974613;28;20610;-77
2023/10/27 12:11:29;;;;;;;3.40;1.60;;;16.20;99.90;;;;;;4954591;28;20629;-77
2023/10/27 12:13:55;;;;;;;5.07;2.10;;;16.20;99.90;;;;;;4977943;28;20641;-77
2023/10/27 12:16:22;;;;;;;6.40;2.60;;;16.10;99.90;;;;;;4975710;28;21116;-77
2023/10/27 12:18:49;;;;;;;3.97;1.90;;;16.00;99.90;;;;;;4974571;28;20682;-77
2023/10/27 12:21:15;;;;;;;5.50;2.23;;;16.00;99.90;;;;;;4974644;28;21281;-78
2023/10/27 12:23:40;;;;;;;4.23;1.50;;;16.00;99.90;;;;;;4990878;28;20686;-77
2023/10/27 12:26:07;;;;;;;6.57;1.63;;;16.00;99.90;;;;;;4967663;28;20207;-77
2023/10/27 12:28:33;;;;;;;4.47;2.00;;;15.90;99.90;;;;;;4974827;28;20197;-77
2023/10/27 12:31:00;;;;;;;3.70;1.70;;;15.90;99.90;;;;;;4990563;28;20623;-76
2023/10/27 12:33:27;;;;;;;6.00;1.77;;;15.80;99.90;;;;;;4974423;28;20582;-76
2023/10/27 12:35:54;;;;;;;4.33;2.20;;;15.80;99.90;;;;;;4983512;28;20656;-77
2023/10/27 12:38:20;;;;;;;5.37;1.40;;;15.70;99.90;;;;;;4975336;28;20942;-78
2023/10/27 12:40:47;;;;;;;4.00;1.00;;;15.70;99.90;;;;;;4974247;28;20606;-77
2023/10/27 12:43:14;;;;;;;4.60;1.50;;;15.60;99.90;;;;;;4978583;28;20233;-77
2023/10/27 12:45:41;;;;;;;9.63;1.13;;;15.60;99.90;;;;;;4979518;28;20642;-77
2023/10/27 12:48:08;;;;;;;6.20;1.63;;;15.50;99.90;;;;;;4981497;28;20683;-76